PGF weather

Perpignan-Rivesaltes (Llabanère) Airport
Perpignan/Rivesaltes, Languedoc-Roussillon, France

Public forecast

Using degrees Celsius for public forecast. Weather courtesy of forecast.io.

Current aviation weather report (METAR) for Perpignan-Rivesaltes (Llabanère) Airport

Retrieved 2019/10/19 03:30 UTC (0 seconds ago):

LFMP 190330Z AUTO 26003KT 9999 SCT008 14/13 Q1009 TEMPO 1200 BR

Aviation forecast (TAF) for Perpignan-Rivesaltes (Llabanère) Airport

Retrieved 2019-10-19 03:42 UTC (0 seconds ago):

TAF LFMP 190200Z 1903/2003 VRB05KT CAVOK TEMPO 1903/1908 1200 BR BECMG 1910/1912 08010KT